Portada
METAR-TAF:

METAR-TAF

Aeroports :

Kirksville Regional Airport

Kirksville, Missouri, Estats Units d'Amèrica

latitud: 40-05-50N, longitud: 092-32-36W, altitud: 294 m

Observació

L'informe es va fer fa 48 minuts, a les 14:55 UTC
Vent 7 kt del Est
Temperatura 3°C
Humitat 100%
Pressió 1012 hPa
Visibilitat: 9.7 km
Núvols disperses a una alçada de 3700 ft
Cel ennuvolat a una alçada de 11000 ft
boirina

METAR: KIRK 171455Z AUTO 10007KT 6SM BR SCT037 BKN110 03/03 A2989 RMK AO2 SLP133 60006 T00330033 58003 $

Hora: 09:43 (15:43 UTC)


TAF: manca

Observacions i pronòstics meteorològics de més de 4000 aeroports (METAR i TAF).

Les estacions disponibles són els punts grocs i vermells al mapa.

Posi el ratolí al punt desitjat per veure el nom de l'estació.

Feu clic per veure les observacions i els pronòstics meteorològics.

Per canviar el mapa: feu clic els botons verds amb una creu de color negre per apropar; al botó verd amb un guió per allunyar la imatge; o en les fletxes verdes per a mapes adjacents.


METAR-TAF: